CheckWX is a tool to help pilots better visualize weather data.  It is not intended as a substitute for an official pre-flight weather briefing.

16:35:45 UTC

KPRC TAF
Ernest A Love Field Airport
Prescott, Arizona, USA
KPRC 261138Z 2612/2712 18010KT P6SM FEW250 FM261900 19010G16KT P6SM SCT250 FM270200 19005KT P6SM BKN200

Mar-26@
12:00 UTC

Mar-26 @ 12:00 UTC

Mar-26@
19:00 UTC

Mar-26 @ 19:00 UTC

KPRC 261138Z 2612/2712 18010KT P6SM FEW250
Wind
  • 180° at 10 KTS
Cloud Levels
  • Few at 25,000' AGL

Mar-26@
19:00 UTC

Mar-26 @ 19:00 UTC

Mar-27@
02:00 UTC

Mar-27 @ 02:00 UTC

FM261900 19010G16KT P6SM SCT250

From

From Standard forecast or significant change

Wind
  • 190° at 10 KTS
  • {Gusting to 16 KTS
Cloud Levels
  • Scattered at 25,000' AGL

Mar-27@
02:00 UTC

Mar-27 @ 02:00 UTC

Mar-27@
12:00 UTC

Mar-27 @ 12:00 UTC

FM270200 19005KT P6SM BKN200

From

From Standard forecast or significant change

Wind
  • 190° at 5 KTS
Cloud Levels
  • Broken at 20,000' AGL